Time;durP1;ratioP1;P1;durP2;ratioP2;P2;SDS_P1;SDS_P2;PMS_P1;PMS_P2;Temp;Humidity;BMP_temperature;BMP_pressure;BME280_temperature;BME280_humidity;BME280_pressure;Samples;Min_cycle;Max_cycle;Signal;HPM_P1;HPM_P2
2021/01/04 00:00:49;;;;;;;77.83;30.93;;;1.80;99.90;;;;;;4941358;29;20207;-93
2021/01/04 00:03:38;;;;;;;83.77;33.27;;;1.70;99.90;;;;;;4943116;29;20229;-92
2021/01/04 00:06:25;;;;;;;79.77;30.93;;;1.80;99.90;;;;;;4935177;29;20222;-90
2021/01/04 00:09:28;;;;;;;81.27;34.47;;;1.80;99.90;;;;;;4943484;29;20175;-90
2021/01/04 00:12:12;;;;;;;82.87;32.47;;;1.80;99.90;;;;;;4907383;29;20194;-92
2021/01/04 00:14:56;;;;;;;75.63;31.00;;;1.80;99.90;;;;;;4922447;29;20183;-92
2021/01/04 00:17:49;;;;;;;72.87;31.70;;;1.80;99.90;;;;;;4922054;29;20230;-92
2021/01/04 00:20:30;;;;;;;70.23;30.90;;;1.80;99.90;;;;;;4922040;29;20184;-92
2021/01/04 00:23:17;;;;;;;75.20;28.87;;;1.80;99.90;;;;;;4939115;29;20633;-91
2021/01/04 00:25:50;;;;;;;65.23;29.20;;;1.80;99.90;;;;;;4939409;29;20433;-91
2021/01/04 00:28:20;;;;;;;77.27;30.13;;;1.80;99.90;;;;;;4938699;29;20645;-90
2021/01/04 00:31:07;;;;;;;68.53;28.73;;;1.80;99.90;;;;;;4939131;29;20183;-92
2021/01/04 00:33:35;;;;;;;74.50;30.23;;;1.80;99.90;;;;;;4938872;29;20175;-93
2021/01/04 00:36:06;;;;;;;83.03;33.20;;;1.80;99.90;;;;;;4921852;29;20258;-91
2021/01/04 00:38:42;;;;;;;83.73;32.07;;;1.80;99.90;;;;;;4938478;29;20202;-92
2021/01/04 00:41:19;;;;;;;86.93;33.43;;;1.80;99.90;;;;;;4938896;29;20180;-91
2021/01/04 00:43:49;;;;;;;82.53;32.23;;;1.80;99.90;;;;;;4921894;29;20191;-91
2021/01/04 00:46:22;;;;;;;78.23;32.87;;;1.70;99.90;;;;;;4938579;29;20250;-90
2021/01/04 00:49:27;;;;;;;86.10;32.17;;;2.70;99.90;;;;;;4919540;29;20195;-91
2021/01/04 00:52:31;;;;;;;86.10;34.30;;;1.80;99.90;;;;;;4938014;29;20190;-91
2021/01/04 00:55:15;;;;;;;76.67;31.10;;;1.80;99.90;;;;;;4938729;29;20269;-92
2021/01/04 00:57:49;;;;;;;78.23;30.50;;;1.80;99.90;;;;;;4921580;29;20194;-91
2021/01/04 01:00:23;;;;;;;80.87;31.03;;;3.50;99.90;;;;;;4941628;29;20160;-90
2021/01/04 01:02:58;;;;;;;76.30;33.03;;;1.80;99.90;;;;;;4940130;29;20521;-90
2021/01/04 01:05:50;;;;;;;76.63;31.60;;;1.80;99.90;;;;;;4938131;29;20213;-91
2021/01/04 01:08:28;;;;;;;77.83;30.67;;;1.80;99.90;;;;;;4921117;29;20195;-91
2021/01/04 01:11:07;;;;;;;73.93;29.87;;;1.80;99.90;;;;;;4938469;29;20175;-92
2021/01/04 01:13:35;;;;;;;75.30;30.07;;;1.80;99.90;;;;;;4921069;29;20628;-92
2021/01/04 01:16:01;;;;;;;75.50;29.50;;;1.80;99.90;;;;;;4938165;29;20275;-92
2021/01/04 01:19:09;;;;;;;76.70;31.43;;;2.50;99.90;;;;;;4938547;29;20267;-90
2021/01/04 01:21:37;;;;;;;78.80;31.80;;;1.80;99.90;;;;;;4923753;29;20333;-90
2021/01/04 01:24:06;;;;;;;85.33;32.07;;;2.60;99.90;;;;;;4941417;29;20276;-90
2021/01/04 01:26:56;;;;;;;80.73;31.57;;;1.90;99.90;;;;;;4941329;29;20342;-89
2021/01/04 01:29:42;;;;;;;77.73;32.93;;;1.90;99.90;;;;;;4920771;29;20197;-91
2021/01/04 01:32:23;;;;;;;80.57;33.63;;;1.90;99.90;;;;;;4938216;29;20183;-91
2021/01/04 01:34:57;;;;;;;80.37;33.60;;;2.00;99.90;;;;;;4938542;29;20231;-89
2021/01/04 01:37:41;;;;;;;74.80;30.50;;;2.00;99.90;;;;;;4922435;29;20196;-90
2021/01/04 01:40:25;;;;;;;83.80;30.37;;;2.00;99.90;;;;;;4939591;29;20200;-89
2021/01/04 01:43:19;;;;;;;73.93;30.03;;;2.80;99.90;;;;;;4922551;29;20536;-92
2021/01/04 01:46:03;;;;;;;71.83;28.63;;;2.00;99.90;;;;;;4937217;29;20222;-92
2021/01/04 01:48:44;;;;;;;68.03;29.50;;;2.00;99.90;;;;;;4920288;29;20553;-93
2021/01/04 01:51:33;;;;;;;74.70;29.63;;;2.20;99.90;;;;;;4937674;29;20672;-92
2021/01/04 01:54:10;;;;;;;77.73;30.67;;;3.50;99.90;;;;;;4937574;29;20212;-92
2021/01/04 01:56:56;;;;;;;77.17;29.67;;;2.00;99.90;;;;;;4937041;29;20256;-92
2021/01/04 01:59:43;;;;;;;71.00;30.73;;;2.00;99.90;;;;;;4937742;29;20262;-92
2021/01/04 02:02:20;;;;;;;73.73;29.47;;;2.10;99.90;;;;;;4937367;29;20587;-91
2021/01/04 02:04:52;;;;;;;70.13;28.53;;;2.20;99.90;;;;;;4937145;29;20230;-92
2021/01/04 02:07:30;;;;;;;61.67;29.00;;;2.10;99.90;;;;;;4920116;29;20216;-92
2021/01/04 02:10:11;;;;;;;74.80;29.87;;;2.10;99.90;;;;;;4937307;29;20172;-92
2021/01/04 02:13:03;;;;;;;69.67;30.50;;;2.00;99.90;;;;;;4936949;29;20176;-92
2021/01/04 02:15:52;;;;;;;73.40;29.13;;;2.10;99.90;;;;;;4936761;29;20193;-93
2021/01/04 02:18:42;;;;;;;70.87;30.23;;;2.10;99.90;;;;;;4936744;29;20184;-93
2021/01/04 02:21:38;;;;;;;74.27;32.13;;;2.10;99.90;;;;;;4919866;29;20222;-92
2021/01/04 02:24:15;;;;;;;74.53;30.73;;;2.10;99.90;;;;;;4937272;29;20199;-93
2021/01/04 02:26:45;;;;;;;76.30;32.67;;;2.00;99.90;;;;;;4936754;29;20214;-92
2021/01/04 02:29:18;;;;;;;88.63;35.50;;;2.00;99.90;;;;;;4920293;29;20184;-94
2021/01/04 02:31:49;;;;;;;82.33;35.10;;;2.00;99.90;;;;;;4936925;29;20185;-94
2021/01/04 02:34:18;;;;;;;86.77;36.77;;;2.10;99.90;;;;;;4937190;29;20641;-93
2021/01/04 02:36:50;;;;;;;95.17;37.53;;;2.20;99.90;;;;;;4919858;29;20210;-94
2021/01/04 02:39:46;;;;;;;85.20;36.83;;;2.10;99.90;;;;;;4920152;29;20190;-93
2021/01/04 02:42:14;;;;;;;89.10;36.97;;;2.00;99.90;;;;;;4919715;29;20279;-93
2021/01/04 02:44:41;;;;;;;95.60;37.37;;;2.10;99.90;;;;;;4919436;29;20200;-93
2021/01/04 02:47:44;;;;;;;92.60;38.20;;;2.10;99.90;;;;;;4919892;29;20225;-92
2021/01/04 02:50:32;;;;;;;85.27;37.53;;;2.00;99.90;;;;;;4919509;29;20191;-93
2021/01/04 02:53:16;;;;;;;91.33;36.60;;;2.90;99.90;;;;;;4936601;29;20180;-92
2021/01/04 02:56:09;;;;;;;87.07;35.73;;;2.10;99.90;;;;;;4928746;29;20711;-93
2021/01/04 02:59:04;;;;;;;83.30;33.00;;;2.10;99.90;;;;;;4934928;29;20621;-91
2021/01/04 03:01:58;;;;;;;78.30;31.10;;;2.10;99.90;;;;;;4932791;29;20226;-91
2021/01/04 03:04:25;;;;;;;74.83;32.93;;;2.10;99.90;;;;;;4936100;29;20184;-92
2021/01/04 03:07:00;;;;;;;78.57;32.83;;;2.40;99.90;;;;;;4934458;29;20306;-92
2021/01/04 03:09:28;;;;;;;78.93;32.80;;;2.20;99.90;;;;;;4936281;29;20594;-92
2021/01/04 03:12:04;;;;;;;83.87;34.03;;;2.20;99.90;;;;;;4935598;29;20184;-91
2021/01/04 03:14:49;;;;;;;83.00;34.40;;;2.10;99.90;;;;;;4936411;29;20205;-92
2021/01/04 03:17:30;;;;;;;73.00;31.83;;;2.10;99.90;;;;;;4935005;29;20184;-91
2021/01/04 03:19:59;;;;;;;82.87;34.63;;;2.10;99.90;;;;;;4935591;29;20255;-90
2021/01/04 03:22:26;;;;;;;76.37;33.33;;;2.50;99.90;;;;;;4936445;29;20188;-91
2021/01/04 03:24:52;;;;;;;85.93;33.97;;;2.60;99.90;;;;;;4934546;29;20176;-92
2021/01/04 03:27:26;;;;;;;76.67;32.10;;;2.60;99.90;;;;;;4935011;29;20207;-92
2021/01/04 03:29:51;;;;;;;72.27;31.83;;;2.80;99.90;;;;;;4936120;29;20173;-91
2021/01/04 03:32:17;;;;;;;88.50;36.57;;;2.20;99.90;;;;;;4934511;29;20521;-90
2021/01/04 03:34:43;;;;;;;91.40;36.83;;;2.40;99.90;;;;;;4935366;29;20184;-91
2021/01/04 03:37:09;;;;;;;90.93;39.77;;;2.20;99.90;;;;;;4934467;29;20667;-90
2021/01/04 03:39:35;;;;;;;88.13;41.77;;;2.20;99.90;;;;;;4935678;29;20187;-91
2021/01/04 03:42:01;;;;;;;93.13;41.87;;;0.80;99.90;;;;;;4934481;29;20187;-92
2021/01/04 03:44:28;;;;;;;87.77;37.13;;;2.20;99.90;;;;;;4935836;29;20270;-92
2021/01/04 03:46:55;;;;;;;88.73;36.87;;;4.00;99.90;;;;;;4918061;29;20683;-89
2021/01/04 03:49:21;;;;;;;79.07;34.83;;;2.20;99.90;;;;;;4934635;29;20208;-90
2021/01/04 03:51:55;;;;;;;85.30;33.50;;;2.20;99.90;;;;;;4935443;29;20184;-92
2021/01/04 03:54:21;;;;;;;81.87;33.40;;;2.20;99.90;;;;;;4935727;29;20183;-91
2021/01/04 03:56:47;;;;;;;82.97;34.23;;;3.30;99.90;;;;;;4902777;29;20191;-92
2021/01/04 03:59:16;;;;;;;78.73;33.30;;;3.10;99.90;;;;;;4903060;29;20197;-90
2021/01/04 04:01:50;;;;;;;73.73;32.40;;;2.20;99.90;;;;;;4935715;29;20251;-93
2021/01/04 04:04:16;;;;;;;71.10;32.60;;;2.40;99.90;;;;;;4935793;29;20180;-91
2021/01/04 04:06:42;;;;;;;76.23;32.87;;;2.40;99.90;;;;;;4902706;29;20230;-92
2021/01/04 04:09:10;;;;;;;80.30;33.20;;;2.20;99.90;;;;;;4935836;29;20259;-91
2021/01/04 04:11:36;;;;;;;84.30;33.57;;;2.20;99.90;;;;;;4935807;29;20187;-91
2021/01/04 04:14:02;;;;;;;79.20;33.43;;;2.20;99.90;;;;;;4935128;29;20184;-91
2021/01/04 04:16:28;;;;;;;79.77;33.10;;;2.20;99.90;;;;;;4918461;29;20221;-91
2021/01/04 04:18:53;;;;;;;72.10;32.70;;;2.20;99.90;;;;;;4918228;29;20216;-91
2021/01/04 04:21:19;;;;;;;76.70;30.93;;;2.30;99.90;;;;;;4918766;29;20225;-91
2021/01/04 04:23:45;;;;;;;82.20;34.03;;;2.30;99.90;;;;;;4935010;29;20176;-91
2021/01/04 04:26:18;;;;;;;91.77;36.40;;;2.30;99.90;;;;;;4935129;29;20208;-91
2021/01/04 04:28:44;;;;;;;104.17;41.20;;;3.40;99.90;;;;;;4935159;29;20199;-91
2021/01/04 04:31:11;;;;;;;99.83;40.63;;;2.30;99.90;;;;;;4935720;29;20180;-91
2021/01/04 04:33:38;;;;;;;97.00;38.43;;;2.20;99.90;;;;;;4918483;29;20593;-90
2021/01/04 04:36:04;;;;;;;86.90;37.03;;;3.60;99.90;;;;;;4934536;29;20207;-92
2021/01/04 04:38:29;;;;;;;89.67;36.17;;;2.20;99.90;;;;;;4918478;29;20194;-92
2021/01/04 04:40:55;;;;;;;91.33;38.00;;;2.50;99.90;;;;;;4919592;29;20678;-91
2021/01/04 04:43:33;;;;;;;100.10;40.43;;;2.20;99.90;;;;;;4905742;29;20188;-91
2021/01/04 04:46:03;;;;;;;97.57;39.53;;;2.20;99.90;;;;;;4938206;29;20676;-91
2021/01/04 04:48:57;;;;;;;84.83;34.33;;;2.20;99.90;;;;;;4937739;29;20638;-91
2021/01/04 04:51:48;;;;;;;71.47;32.80;;;2.20;99.90;;;;;;4937762;29;20262;-91
2021/01/04 04:54:55;;;;;;;83.10;34.03;;;2.20;99.90;;;;;;4920604;29;20191;-91
2021/01/04 04:57:39;;;;;;;72.17;29.93;;;2.20;99.90;;;;;;4920765;29;20195;-91
2021/01/04 05:00:29;;;;;;;80.17;33.73;;;2.30;99.90;;;;;;4937352;29;20178;-92
2021/01/04 05:03:00;;;;;;;77.27;31.90;;;2.20;99.90;;;;;;4920341;29;20195;-92
2021/01/04 05:05:53;;;;;;;83.80;33.30;;;2.30;99.90;;;;;;4920588;29;20191;-91
2021/01/04 05:08:52;;;;;;;80.50;33.40;;;2.30;99.90;;;;;;4921505;29;20184;-91
2021/01/04 05:11:21;;;;;;;72.33;32.43;;;2.30;99.90;;;;;;4922079;29;20189;-91
2021/01/04 05:13:51;;;;;;;77.03;34.40;;;2.10;99.90;;;;;;4922148;29;20179;-89
2021/01/04 05:16:27;;;;;;;74.57;33.40;;;2.30;99.90;;;;;;4923989;29;20191;-90
2021/01/04 05:19:10;;;;;;;81.23;34.63;;;2.30;99.90;;;;;;4938196;29;20187;-90
2021/01/04 05:21:54;;;;;;;77.03;34.10;;;2.30;99.90;;;;;;4921126;29;20190;-91
2021/01/04 05:24:38;;;;;;;78.90;35.10;;;2.30;99.90;;;;;;4938292;29;20181;-90
2021/01/04 05:27:22;;;;;;;81.87;36.10;;;2.40;99.90;;;;;;4920376;29;20222;-90
2021/01/04 05:30:20;;;;;;;98.10;36.00;;;2.40;99.90;;;;;;4920890;29;20195;-88
2021/01/04 05:33:13;;;;;;;91.13;36.00;;;2.40;99.90;;;;;;4937986;29;20187;-89
2021/01/04 05:35:40;;;;;;;99.77;38.57;;;2.40;99.90;;;;;;4920748;29;20199;-90
2021/01/04 05:38:21;;;;;;;99.00;36.53;;;2.40;99.90;;;;;;4920435;29;20278;-91
2021/01/04 05:41:17;;;;;;;84.57;35.23;;;3.40;99.90;;;;;;4937613;29;20207;-91
2021/01/04 05:43:58;;;;;;;86.97;35.77;;;2.40;99.90;;;;;;4920367;29;20195;-91
2021/01/04 05:46:46;;;;;;;88.23;35.87;;;2.40;99.90;;;;;;4937466;29;20211;-90
2021/01/04 05:49:38;;;;;;;92.00;35.90;;;3.20;99.90;;;;;;4937304;29;20660;-90
2021/01/04 05:52:06;;;;;;;81.73;34.37;;;2.40;99.90;;;;;;4936101;29;20187;-90
2021/01/04 05:54:35;;;;;;;79.27;36.10;;;2.40;99.90;;;;;;4937169;29;20891;-89
2021/01/04 05:57:12;;;;;;;88.17;36.03;;;2.40;99.90;;;;;;4936850;29;20242;-89
2021/01/04 05:59:46;;;;;;;92.00;38.93;;;2.60;99.90;;;;;;4937304;29;20266;-89
2021/01/04 06:02:22;;;;;;;91.23;41.17;;;2.40;99.90;;;;;;4936815;29;20384;-89
2021/01/04 06:04:48;;;;;;;100.40;42.27;;;2.40;99.90;;;;;;4937506;29;20256;-91
2021/01/04 06:07:14;;;;;;;99.03;44.60;;;2.80;99.90;;;;;;4919832;29;20231;-89
2021/01/04 06:09:39;;;;;;;96.63;42.50;;;2.50;99.90;;;;;;4920447;29;20271;-90
2021/01/04 06:12:13;;;;;;;100.50;43.93;;;2.60;99.90;;;;;;4904010;29;20192;-90
2021/01/04 06:14:40;;;;;;;110.50;44.43;;;2.40;99.90;;;;;;4937097;29;20175;-90
2021/01/04 06:17:08;;;;;;;117.53;43.87;;;2.50;99.90;;;;;;4919532;29;20254;-89
2021/01/04 06:19:42;;;;;;;111.17;46.13;;;3.70;99.90;;;;;;4937015;29;20214;-87
2021/01/04 06:22:17;;;;;;;95.10;44.80;;;3.60;99.90;;;;;;4936535;29;20180;-87
2021/01/04 06:24:45;;;;;;;95.40;43.17;;;2.50;99.90;;;;;;4920069;29;20195;-91
2021/01/04 06:27:18;;;;;;;75.00;35.60;;;2.50;99.90;;;;;;4918661;29;20279;-89
2021/01/04 06:29:47;;;;;;;85.90;38.93;;;2.70;99.90;;;;;;4919441;29;20206;-89
2021/01/04 06:32:26;;;;;;;72.63;33.37;;;2.40;99.90;;;;;;4919316;29;20211;-90
2021/01/04 06:34:55;;;;;;;64.07;30.67;;;2.50;99.90;;;;;;4919885;29;20181;-91
2021/01/04 06:37:25;;;;;;;70.10;31.77;;;2.50;99.90;;;;;;4936372;29;20220;-90
2021/01/04 06:40:21;;;;;;;61.93;30.17;;;2.40;99.90;;;;;;4918926;29;20250;-89
2021/01/04 06:42:47;;;;;;;71.47;33.07;;;2.40;99.90;;;;;;4936442;29;20183;-90
2021/01/04 06:45:50;;;;;;;85.13;38.47;;;3.30;99.90;;;;;;4904199;29;20637;-91
2021/01/04 06:48:31;;;;;;;78.50;36.57;;;2.30;99.90;;;;;;4919110;29;20546;-90
2021/01/04 06:51:26;;;;;;;87.63;42.23;;;2.40;99.90;;;;;;4929520;29;20287;-90
2021/01/04 06:54:14;;;;;;;93.73;43.27;;;2.30;99.90;;;;;;4913077;29;20197;-89
2021/01/04 06:57:08;;;;;;;81.63;40.00;;;2.30;99.90;;;;;;4938041;29;20198;-90
2021/01/04 07:00:08;;;;;;;82.17;38.10;;;2.40;99.90;;;;;;4941740;29;20184;-95
2021/01/04 07:02:58;;;;;;;84.57;38.03;;;2.30;99.90;;;;;;4940418;28;20656;-93
2021/01/04 07:05:42;;;;;;;89.73;40.83;;;2.30;99.90;;;;;;4961945;28;20233;-95
2021/01/04 07:08:19;;;;;;;93.43;41.10;;;3.20;99.90;;;;;;4957129;29;20211;-94
2021/01/04 07:11:00;;;;;;;86.37;37.90;;;2.20;99.90;;;;;;4963462;28;20183;-93
2021/01/04 07:13:59;;;;;;;85.70;38.73;;;2.20;99.90;;;;;;4960772;29;20182;-93
2021/01/04 07:16:28;;;;;;;88.97;38.30;;;2.30;99.90;;;;;;4942354;29;20185;-96
2021/01/04 07:19:08;;;;;;;94.07;41.37;;;2.70;99.90;;;;;;4956835;28;20674;-94
2021/01/04 07:21:46;;;;;;;109.90;46.83;;;2.30;99.90;;;;;;4941747;29;20205;-94
2021/01/04 07:24:53;;;;;;;95.30;44.17;;;4.00;99.90;;;;;;4958035;29;20258;-93
2021/01/04 07:27:42;;;;;;;92.30;42.00;;;2.20;99.90;;;;;;4956860;29;20207;-95
2021/01/04 07:30:43;;;;;;;92.53;41.90;;;2.40;99.90;;;;;;4940389;29;20182;-94
2021/01/04 07:33:41;;;;;;;93.93;39.30;;;2.40;99.90;;;;;;4959122;29;20666;-93
2021/01/04 07:36:39;;;;;;;81.47;37.73;;;2.40;99.90;;;;;;4966206;28;20184;-93
2021/01/04 07:39:24;;;;;;;70.93;34.80;;;2.40;99.90;;;;;;4905141;28;20189;-88
2021/01/04 07:42:28;;;;;;;76.87;36.47;;;2.40;99.90;;;;;;4974594;29;20201;-91
2021/01/04 07:45:26;;;;;;;95.97;41.07;;;2.30;99.90;;;;;;4961590;23;20233;-93
2021/01/04 07:48:29;;;;;;;87.60;37.63;;;2.40;99.90;;;;;;5288968;23;20305;-92
2021/01/04 07:51:43;;;;;;;89.93;40.40;;;2.20;99.90;;;;;;4958213;28;20202;-89
2021/01/04 07:54:12;;;;;;;96.07;41.57;;;3.00;99.90;;;;;;4924218;29;20211;-89
2021/01/04 07:57:05;;;;;;;100.67;44.90;;;2.50;99.90;;;;;;4956934;28;20214;-93
2021/01/04 08:03:04;;;;;;;105.90;45.77;;;2.70;99.90;;;;;;5456026;23;20461;-90
2021/01/04 08:06:07;;;;;;;93.83;44.67;;;2.70;99.90;;;;;;5074007;23;20282;-89
2021/01/04 08:08:43;;;;;;;104.20;46.00;;;2.90;99.90;;;;;;4925243;29;20200;-90
2021/01/04 08:11:09;;;;;;;103.80;44.23;;;;;;;;;;4939003;29;20249;-90
2021/01/04 08:13:53;;;;;;;97.30;43.77;;;2.80;99.90;;;;;;4931711;29;20207;-94
2021/01/04 08:16:37;;;;;;;87.27;39.67;;;4.30;99.90;;;;;;4932548;29;20216;-93
2021/01/04 08:19:07;;;;;;;84.97;38.87;;;2.90;99.90;;;;;;5016030;23;20271;-94
2021/01/04 08:21:57;;;;;;;92.93;40.07;;;3.00;99.90;;;;;;5071686;23;20307;-94
2021/01/04 08:24:45;;;;;;;87.83;40.43;;;3.00;99.90;;;;;;5101758;23;20258;-96
2021/01/04 08:27:40;;;;;;;78.77;37.90;;;3.00;99.90;;;;;;4953774;29;20215;-95
2021/01/04 08:30:26;;;;;;;83.80;38.73;;;3.10;99.90;;;;;;4969501;28;20201;-94
2021/01/04 08:35:39;;;;;;;80.50;36.73;;;3.30;99.90;;;;;;5296402;23;20564;-94
2021/01/04 08:38:33;;;;;;;78.87;38.87;;;3.30;99.90;;;;;;4948288;29;20198;-93
2021/01/04 08:41:07;;;;;;;79.47;35.83;;;3.60;99.90;;;;;;4972493;29;20183;-93
2021/01/04 08:43:45;;;;;;;72.00;35.47;;;3.50;99.90;;;;;;4954736;29;20345;-94
2021/01/04 08:46:23;;;;;;;64.10;33.50;;;3.90;99.90;;;;;;4976771;28;20281;-95
2021/01/04 08:48:57;;;;;;;65.10;34.13;;;3.80;99.90;;;;;;5068076;23;20201;-95
2021/01/04 08:51:36;;;;;;;74.07;34.67;;;3.90;99.90;;;;;;5300880;23;20253;-94
2021/01/04 08:54:03;;;;;;;75.83;34.83;;;;;;;;;;5190021;23;20257;-95
2021/01/04 08:56:55;;;;;;;69.37;33.40;;;3.90;99.90;;;;;;4992149;23;20254;-96
2021/01/04 08:59:24;;;;;;;70.47;34.90;;;4.00;99.90;;;;;;5022780;23;20323;-94
2021/01/04 09:01:54;;;;;;;65.17;33.27;;;3.90;99.90;;;;;;5080023;23;21049;-95
2021/01/04 09:04:31;;;;;;;69.30;35.40;;;4.10;99.90;;;;;;4960009;28;20168;-95
2021/01/04 09:10:00;;;;;;;125.90;66.57;;;4.70;99.90;;;;;;4929677;27;20298;-89
2021/01/04 09:12:39;;;;;;;63.77;33.13;;;4.20;99.90;;;;;;5166410;23;20248;-96
2021/01/04 09:15:21;;;;;;;59.53;30.43;;;4.60;99.90;;;;;;5067037;23;20730;-96
2021/01/04 09:18:01;;;;;;;62.33;33.10;;;4.60;99.90;;;;;;4942505;29;20225;-96
2021/01/04 09:20:39;;;;;;;54.07;28.67;;;4.50;99.90;;;;;;4936766;29;20187;-95
2021/01/04 09:23:24;;;;;;;59.13;28.40;;;4.50;99.90;;;;;;4938179;29;20664;-95
2021/01/04 09:26:01;;;;;;;57.43;27.97;;;5.10;99.90;;;;;;4938679;29;20203;-94
2021/01/04 09:28:34;;;;;;;58.23;29.63;;;4.70;99.90;;;;;;4947152;29;20210;-94
2021/01/04 09:31:01;;;;;;;56.00;28.17;;;;;;;;;;4944752;29;20191;-95
2021/01/04 09:33:27;;;;;;;56.83;28.90;;;;;;;;;;4938075;29;20202;-96
2021/01/04 09:36:02;;;;;;;54.93;27.43;;;4.80;99.90;;;;;;4944725;29;20184;-95
2021/01/04 09:38:31;;;;;;;57.37;28.83;;;;;;;;;;5113003;23;20247;-93
2021/01/04 09:41:02;;;;;;;50.90;27.23;;;4.80;99.90;;;;;;4959215;28;20185;-96
2021/01/04 09:43:30;;;;;;;54.83;26.83;;;4.80;99.90;;;;;;4942620;29;20183;-94
2021/01/04 09:46:24;;;;;;;58.23;29.43;;;4.80;99.90;;;;;;4958462;28;20680;-96
2021/01/04 09:48:59;;;;;;;53.60;27.33;;;4.80;99.90;;;;;;4964232;29;20661;-93
2021/01/04 09:51:44;;;;;;;57.57;29.03;;;4.80;99.90;;;;;;4973870;28;20197;-94
2021/01/04 09:54:14;;;;;;;53.73;26.47;;;5.00;99.90;;;;;;5080699;23;20226;-91
2021/01/04 09:56:40;;;;;;;54.97;26.57;;;5.00;99.90;;;;;;4944939;29;20190;-96
2021/01/04 09:59:08;;;;;;;50.77;26.03;;;5.00;99.90;;;;;;4941037;29;20235;-96
2021/01/04 10:01:48;;;;;;;47.37;25.70;;;5.10;99.90;;;;;;4944224;29;20233;-94
2021/01/04 10:04:25;;;;;;;53.43;26.40;;;5.10;99.90;;;;;;4943662;29;20174;-95
2021/01/04 10:06:51;;;;;;;49.90;27.97;;;;;;;;;;4957121;29;20306;-96
2021/01/04 10:09:18;;;;;;;46.07;25.17;;;5.10;99.90;;;;;;4951424;29;20191;-94
2021/01/04 10:11:47;;;;;;;49.80;25.97;;;5.10;99.90;;;;;;4957654;29;21020;-95
2021/01/04 10:14:15;;;;;;;47.50;23.20;;;5.20;99.90;;;;;;4954111;29;20186;-94
2021/01/04 10:16:44;;;;;;;47.83;26.30;;;5.20;99.90;;;;;;4954998;29;20178;-96
2021/01/04 10:19:17;;;;;;;50.27;26.33;;;5.20;99.90;;;;;;4951952;29;20172;-92
2021/01/04 10:21:54;;;;;;;52.87;27.03;;;5.20;99.90;;;;;;4947335;29;20193;-93
2021/01/04 10:24:24;;;;;;;49.33;25.33;;;5.30;99.90;;;;;;4974912;28;20190;-94
2021/01/04 10:26:51;;;;;;;51.63;25.97;;;5.30;99.90;;;;;;4954593;28;20221;-92
2021/01/04 10:29:27;;;;;;;48.67;25.97;;;5.30;99.90;;;;;;4949638;28;20190;-95
2021/01/04 10:32:11;;;;;;;50.87;27.50;;;5.30;99.90;;;;;;4934410;29;20186;-93
2021/01/04 10:34:43;;;;;;;46.90;26.17;;;5.40;99.90;;;;;;4963294;29;20178;-95
2021/01/04 10:37:26;;;;;;;53.83;28.50;;;6.00;99.90;;;;;;4948738;29;20206;-95
2021/01/04 10:39:58;;;;;;;50.63;26.73;;;5.70;99.90;;;;;;4947206;29;20218;-96
2021/01/04 10:42:24;;;;;;;58.67;25.47;;;5.70;99.90;;;;;;4957440;29;20183;-92
2021/01/04 10:45:00;;;;;;;48.63;26.00;;;5.70;99.90;;;;;;4927130;29;20182;-94
2021/01/04 10:47:50;;;;;;;50.57;26.00;;;5.80;99.90;;;;;;4956397;29;20208;-95
2021/01/04 10:50:37;;;;;;;54.53;27.40;;;5.80;99.90;;;;;;4943605;29;20235;-93
2021/01/04 10:53:12;;;;;;;43.67;24.83;;;5.80;99.90;;;;;;4947221;29;20282;-94
2021/01/04 10:55:51;;;;;;;49.10;26.37;;;5.90;99.90;;;;;;4939691;29;20574;-96
2021/01/04 11:01:13;;;;;;;45.17;24.63;;;6.00;99.90;;;;;;4943092;29;20268;-93
2021/01/04 11:03:52;;;;;;;41.27;23.60;;;6.00;99.90;;;;;;4947778;29;20238;-94
2021/01/04 11:06:30;;;;;;;53.03;27.50;;;6.10;99.90;;;;;;4940461;29;20632;-91
2021/01/04 11:08:57;;;;;;;49.23;25.60;;;;;;;;;;4951329;29;20182;-93
2021/01/04 11:14:16;;;;;;;55.83;27.70;;;6.30;99.90;;;;;;4925563;29;20219;-93
2021/01/04 11:16:49;;;;;;;49.83;24.90;;;6.30;99.90;;;;;;4927674;29;20212;-94
2021/01/04 11:19:33;;;;;;;41.53;23.30;;;6.30;99.90;;;;;;4925128;29;20188;-94
2021/01/04 11:22:31;;;;;;;44.33;23.80;;;6.30;99.90;;;;;;4923713;29;20175;-96
2021/01/04 11:25:04;;;;;;;43.07;23.83;;;6.30;99.90;;;;;;4900767;29;20188;-96
2021/01/04 11:27:31;;;;;;;42.77;25.73;;;;;;;;;;4926870;29;20195;-94
2021/01/04 11:30:05;;;;;;;49.87;28.17;;;6.60;99.90;;;;;;4924525;29;20527;-95
2021/01/04 11:32:33;;;;;;;45.30;25.47;;;6.70;99.90;;;;;;4933014;29;20236;-95
2021/01/04 11:35:02;;;;;;;49.23;25.37;;;7.50;99.90;;;;;;4933239;29;20187;-96
2021/01/04 11:37:28;;;;;;;45.67;23.70;;;;;;;;;;4922590;29;20220;-96
2021/01/04 11:39:57;;;;;;;49.37;25.13;;;6.70;99.90;;;;;;4987082;23;20247;-96
2021/01/04 11:44:52;;;;;;;51.27;26.50;;;;;;;;;;4932027;29;20204;-96
2021/01/04 11:47:19;;;;;;;45.13;26.57;;;;;;;;;;4909280;29;20203;-95
2021/01/04 11:49:45;;;;;;;53.47;27.67;;;;;;;;;;4933364;29;20172;-94
2021/01/04 11:52:11;;;;;;;57.30;29.07;;;;;;;;;;4916835;29;20192;-94
2021/01/04 11:54:41;;;;;;;56.23;29.83;;;6.90;99.90;;;;;;4938006;29;20187;-94
2021/01/04 11:57:07;;;;;;;53.13;29.00;;;;;;;;;;4936600;29;20224;-94
2021/01/04 11:59:34;;;;;;;59.93;29.77;;;6.90;99.90;;;;;;4926545;29;20179;-94
2021/01/04 12:02:00;;;;;;;137.07;44.97;;;;;;;;;;4928770;29;20268;-96
2021/01/04 12:04:26;;;;;;;79.97;33.17;;;;;;;;;;4938461;29;20200;-96
2021/01/04 12:06:55;;;;;;;137.13;45.47;;;;;;;;;;4912871;29;20188;-94
2021/01/04 12:09:20;;;;;;;65.00;31.70;;;7.00;99.90;;;;;;5067717;23;20251;-96
2021/01/04 12:11:47;;;;;;;56.17;31.00;;;;;;;;;;4957719;29;20175;-96
2021/01/04 12:14:15;;;;;;;60.83;32.87;;;7.00;99.90;;;;;;4958912;29;20190;-94
2021/01/04 12:16:41;;;;;;;70.50;35.13;;;;;;;;;;4953463;28;20993;-88
2021/01/04 12:19:08;;;;;;;59.87;30.73;;;7.10;99.90;;;;;;4952552;29;20680;-95
2021/01/04 12:21:34;;;;;;;56.63;30.47;;;7.00;99.90;;;;;;4955056;29;20187;-96
2021/01/04 12:24:00;;;;;;;58.13;30.37;;;6.90;99.90;;;;;;4950110;29;20210;-94
2021/01/04 12:26:26;;;;;;;68.63;33.40;;;6.90;99.90;;;;;;4953329;29;20195;-94
2021/01/04 12:28:52;;;;;;;61.83;31.67;;;6.80;99.90;;;;;;4951627;29;20183;-94
2021/01/04 12:31:19;;;;;;;79.93;34.17;;;6.70;99.90;;;;;;4957089;29;20251;-96
2021/01/04 12:33:44;;;;;;;82.27;34.93;;;6.70;99.90;;;;;;4952299;29;20171;-93
2021/01/04 12:36:23;;;;;;;68.00;32.47;;;6.90;99.90;;;;;;4942916;29;20279;-96
2021/01/04 12:38:49;;;;;;;59.70;29.07;;;7.10;99.90;;;;;;4958771;29;20163;-94
2021/01/04 12:41:16;;;;;;;66.30;30.17;;;7.10;99.90;;;;;;4953363;29;20276;-96
2021/01/04 12:43:44;;;;;;;61.93;31.77;;;7.10;99.90;;;;;;4957132;29;20195;-96
2021/01/04 12:46:12;;;;;;;58.40;30.50;;;7.10;99.90;;;;;;4953925;29;20199;-94
2021/01/04 12:48:37;;;;;;;61.73;31.53;;;6.90;99.90;;;;;;4926552;29;20203;-95
2021/01/04 12:51:05;;;;;;;58.33;30.93;;;6.80;99.90;;;;;;4954596;29;20207;-95
2021/01/04 12:53:31;;;;;;;58.27;30.80;;;6.70;99.90;;;;;;4949819;29;20222;-93
2021/01/04 12:55:56;;;;;;;62.27;34.60;;;6.70;99.90;;;;;;4935881;29;20231;-93
2021/01/04 12:58:22;;;;;;;61.93;31.00;;;6.70;99.90;;;;;;4953317;29;20180;-94
2021/01/04 13:00:50;;;;;;;58.97;30.10;;;6.90;99.90;;;;;;4989268;23;20164;-89
2021/01/04 13:03:16;;;;;;;54.70;29.60;;;;;;;;;;5263301;23;20742;-96
2021/01/04 13:05:42;;;;;;;58.63;32.43;;;;;;;;;;4961648;28;20201;-91
2021/01/04 13:08:08;;;;;;;61.73;33.70;;;6.70;99.90;;;;;;4952570;28;20718;-90
2021/01/04 13:10:34;;;;;;;58.07;31.77;;;6.70;99.90;;;;;;4935103;28;20710;-93
2021/01/04 13:13:00;;;;;;;59.30;31.63;;;;;;;;;;4951102;28;20175;-95
2021/01/04 13:15:26;;;;;;;62.90;31.50;;;6.60;99.90;;;;;;4955357;28;20643;-93
2021/01/04 13:17:51;;;;;;;61.83;33.00;;;6.70;99.90;;;;;;4940876;28;20286;-89
2021/01/04 13:20:17;;;;;;;70.03;33.33;;;6.60;99.90;;;;;;4956901;28;20184;-90
2021/01/04 13:22:43;;;;;;;65.07;35.03;;;6.70;99.90;;;;;;4958145;28;20182;-88
2021/01/04 13:25:11;;;;;;;83.03;43.37;;;6.70;99.90;;;;;;4937914;28;20190;-91
2021/01/04 13:27:36;;;;;;;84.03;45.93;;;6.70;99.90;;;;;;4951495;28;20190;-90
2021/01/04 13:30:05;;;;;;;71.17;36.57;;;6.80;99.90;;;;;;4932498;28;20184;-91
2021/01/04 13:32:30;;;;;;;89.37;42.50;;;6.70;99.90;;;;;;4966860;28;20241;-90
2021/01/04 13:34:56;;;;;;;86.17;42.20;;;6.40;99.90;;;;;;4952578;28;20195;-94
2021/01/04 13:37:22;;;;;;;105.63;51.03;;;6.70;99.90;;;;;;4934254;28;20314;-93
2021/01/04 13:39:47;;;;;;;81.10;40.83;;;6.50;99.90;;;;;;4937291;28;20182;-94
2021/01/04 13:42:14;;;;;;;70.03;36.40;;;6.70;99.90;;;;;;4920807;28;20591;-92
2021/01/04 13:44:41;;;;;;;75.27;38.97;;;6.50;99.90;;;;;;4951699;28;20180;-94
2021/01/04 13:47:10;;;;;;;84.70;43.13;;;6.50;99.90;;;;;;4966571;28;20283;-95